Time;durP1;ratioP1;P1;durP2;ratioP2;P2;SDS_P1;SDS_P2;PMS_P1;PMS_P2;Temp;Humidity;BMP_temperature;BMP_pressure;BME280_temperature;BME280_humidity;BME280_pressure;Samples;Min_cycle;Max_cycle;Signal;HPM_P1;HPM_P2
2023/03/20 00:01:18;;;;;;;;;;;;;;;11.17;39.89;95438.81;5090374;28;19981;-63
2023/03/20 00:03:45;;;;;;;;;;;;;;;11.31;39.89;95437.41;5091110;28;20736;-62
2023/03/20 00:06:16;;;;;;;;;;;;;;;11.47;39.31;95435.72;5090374;28;19920;-61
2023/03/20 00:08:46;;;;;;;;;;;;;;;11.38;39.55;95430.13;5090846;28;19920;-63
2023/03/20 00:11:25;;;;;;;;;;;;;;;11.46;39.18;95429.66;5090276;28;20017;-61
2023/03/20 00:13:52;;;;;;;;;;;;;;;11.42;39.46;95423.34;5091293;28;19947;-63
2023/03/20 00:16:20;;;;;;;;;;;;;;;11.41;39.35;95434.06;5090874;28;19954;-64
2023/03/20 00:18:47;;;;;;;;;;;;;;;11.37;39.10;95428.53;5090435;28;20520;-63
2023/03/20 00:21:17;;;;;;;;;;;;;;;11.37;39.11;95427.75;5090711;28;20031;-62
2023/03/20 00:23:44;;;;;;;;;;;;;;;11.17;39.57;95423.06;5090793;28;20036;-64
2023/03/20 00:26:19;;;;;;;;;;;;;;;11.16;39.26;95430.16;5090727;28;19949;-62
2023/03/20 00:28:47;;;;;;;;;;;;;;;11.00;39.78;95433.63;5090776;28;19981;-62
2023/03/20 00:31:19;;;;;;;;;;;;;;;11.04;39.54;95424.22;5090336;28;20511;-63
2023/03/20 00:33:46;;;;;;;;;;;;;;;10.29;40.87;95420.66;5089422;28;19945;-61
2023/03/20 00:36:13;;;;;;;;;;;;;;;10.73;39.83;95422.28;5090108;28;19944;-63
2023/03/20 00:38:40;;;;;;;;;;;;;;;11.09;39.41;95420.91;5102626;28;19951;-64
2023/03/20 00:41:34;;;;;;;;;;;;;;;10.78;39.83;95418.94;5087803;28;20011;-62
2023/03/20 00:44:02;;;;;;;;;;;;;;;10.95;39.55;95409.16;5085869;28;20324;-64
2023/03/20 00:46:30;;;;;;;;;;;;;;;10.91;39.64;95414.13;5089036;28;19954;-63
2023/03/20 00:48:57;;;;;;;;;;;;;;;10.89;39.59;95416.19;5106881;28;19973;-62
2023/03/20 00:51:24;;;;;;;;;;;;;;;11.02;39.53;95415.81;5089827;28;19965;-62
2023/03/20 00:53:51;;;;;;;;;;;;;;;10.96;39.59;95419.44;5089081;28;19947;-62
2023/03/20 00:56:31;;;;;;;;;;;;;;;11.10;39.67;95417.22;5089024;28;19996;-64
2023/03/20 00:59:00;;;;;;;;;;;;;;;11.01;39.05;95411.63;5090190;28;20475;-62
2023/03/20 01:01:27;;;;;;;;;;;;;;;10.91;39.65;95413.34;5089957;28;19964;-63
2023/03/20 01:03:54;;;;;;;;;;;;;;;10.92;39.89;95407.84;5090260;28;19947;-64
2023/03/20 01:06:21;;;;;;;;;;;;;;;10.99;39.74;95399.78;5090999;28;19946;-65
2023/03/20 01:08:48;;;;;;;;;;;;;;;10.88;40.18;95398.09;5090911;28;20308;-62
2023/03/20 01:11:18;;;;;;;;;;;;;;;10.75;40.12;95399.25;5089872;28;19945;-62
2023/03/20 01:13:47;;;;;;;;;;;;;;;10.71;40.39;95398.13;5105518;28;20002;-61
2023/03/20 01:16:19;;;;;;;;;;;;;;;10.56;40.32;95392.72;5089641;28;19933;-61
2023/03/20 01:18:47;;;;;;;;;;;;;;;10.31;41.24;95394.97;5088771;28;19948;-63
2023/03/20 01:21:13;;;;;;;;;;;;;;;10.46;40.71;95387.34;5090082;28;19937;-63
2023/03/20 01:23:40;;;;;;;;;;;;;;;10.57;40.90;95383.81;5090784;28;19952;-64
2023/03/20 01:26:33;;;;;;;;;;;;;;;10.56;40.95;95390.09;5105148;28;20494;-62
2023/03/20 01:29:00;;;;;;;;;;;;;;;10.23;41.72;95394.63;5072437;28;19947;-61
2023/03/20 01:31:28;;;;;;;;;;;;;;;9.79;42.36;95398.91;5088118;28;20385;-61
2023/03/20 01:33:55;;;;;;;;;;;;;;;8.01;46.25;95410.56;5088293;28;20570;-61
2023/03/20 01:36:23;;;;;;;;;;;;;;;9.06;44.88;95417.25;5087748;28;19944;-60
2023/03/20 01:38:52;;;;;;;;;;;;;;;8.34;46.04;95410.78;5089508;28;19946;-63
2023/03/20 01:41:21;;;;;;;;;;;;;;;8.06;47.28;95414.06;5088052;28;19977;-61
2023/03/20 01:43:49;;;;;;;;;;;;;;;8.90;45.05;95410.94;5090907;28;19939;-61
2023/03/20 01:46:18;;;;;;;;;;;;;;;9.31;44.00;95406.44;5087982;28;20384;-62
2023/03/20 01:48:51;;;;;;;;;;;;;;;9.23;44.30;95409.44;5105445;28;20365;-61
2023/03/20 01:51:20;;;;;;;;;;;;;;;9.38;43.96;95415.72;5088823;28;20539;-62
2023/03/20 01:53:54;;;;;;;;;;;;;;;9.51;43.50;95409.41;5088274;28;19970;-62
2023/03/20 01:56:20;;;;;;;;;;;;;;;9.89;42.72;95406.91;5087484;28;20045;-62
2023/03/20 01:58:55;;;;;;;;;;;;;;;10.10;42.10;95411.44;5088628;28;19941;-64
2023/03/20 02:01:23;;;;;;;;;;;;;;;10.09;41.95;95410.66;5088074;28;19937;-61
2023/03/20 02:03:51;;;;;;;;;;;;;;;10.06;41.43;95405.88;5087455;28;19995;-61
2023/03/20 02:06:39;;;;;;;;;;;;;;;10.08;41.81;95405.63;5087372;28;20355;-64
2023/03/20 02:09:13;;;;;;;;;;;;;;;10.16;41.49;95407.88;5087458;28;19948;-61
2023/03/20 02:11:43;;;;;;;;;;;;;;;10.04;42.07;95396.66;5087137;28;20407;-60
2023/03/20 02:14:11;;;;;;;;;;;;;;;9.90;41.97;95404.06;5087384;28;19952;-61
2023/03/20 02:17:05;;;;;;;;;;;;;;;9.84;42.08;95398.97;5087759;28;20003;-61
2023/03/20 02:19:36;;;;;;;;;;;;;;;9.79;42.22;95393.66;5087801;28;19986;-61
2023/03/20 02:22:22;;;;;;;;;;;;;;;9.80;42.18;95400.47;5087567;28;19950;-61
2023/03/20 02:24:52;;;;;;;;;;;;;;;9.87;42.23;95401.13;5095538;28;20034;-63
2023/03/20 02:27:23;;;;;;;;;;;;;;;9.91;41.98;95407.44;5087199;28;19946;-62
2023/03/20 02:29:53;;;;;;;;;;;;;;;9.80;42.28;95408.31;5104420;28;19932;-62
2023/03/20 02:32:38;;;;;;;;;;;;;;;9.78;42.52;95408.56;5086910;28;19954;-62
2023/03/20 02:35:36;;;;;;;;;;;;;;;9.81;42.35;95409.94;5086601;28;19995;-62
2023/03/20 02:38:03;;;;;;;;;;;;;;;9.76;42.35;95409.84;5067602;28;20706;-64
2023/03/20 02:40:49;;;;;;;;;;;;;;;9.56;42.88;95419.97;5087184;28;19971;-62
2023/03/20 02:43:24;;;;;;;;;;;;;;;8.73;44.27;95415.28;5086694;28;19967;-62
2023/03/20 02:46:03;;;;;;;;;;;;;;;8.78;44.80;95411.97;5086479;28;20488;-62
2023/03/20 02:48:32;;;;;;;;;;;;;;;8.04;46.45;95410.09;5103689;28;19932;-63
2023/03/20 02:51:17;;;;;;;;;;;;;;;8.32;45.83;95407.63;5086501;28;19942;-62
2023/03/20 02:54:02;;;;;;;;;;;;;;;8.46;45.81;95398.53;5087004;28;19967;-61
2023/03/20 02:56:34;;;;;;;;;;;;;;;8.70;44.98;95400.09;5086002;28;19962;-62
2023/03/20 02:59:03;;;;;;;;;;;;;;;8.57;45.45;95394.31;5088553;28;20031;-60
2023/03/20 03:01:33;;;;;;;;;;;;;;;8.72;45.18;95398.00;5086251;28;19970;-61
2023/03/20 03:04:03;;;;;;;;;;;;;;;8.71;45.24;95399.06;5102775;28;20001;-62
2023/03/20 03:06:31;;;;;;;;;;;;;;;8.91;44.37;95396.84;5090473;28;20668;-63
2023/03/20 03:09:17;;;;;;;;;;;;;;;9.05;43.79;95395.53;5092464;28;19950;-60
2023/03/20 03:11:47;;;;;;;;;;;;;;;9.01;44.12;95396.25;5091447;28;20397;-61
2023/03/20 03:14:28;;;;;;;;;;;;;;;9.16;43.45;95397.31;5091073;28;19944;-61
2023/03/20 03:16:56;;;;;;;;;;;;;;;9.53;43.40;95394.28;5091630;28;19945;-62
2023/03/20 03:19:28;;;;;;;;;;;;;;;9.62;43.16;95388.41;5090509;28;20022;-61
2023/03/20 03:21:54;;;;;;;;;;;;;;;9.36;43.81;95383.00;5090305;28;19973;-63
2023/03/20 03:24:30;;;;;;;;;;;;;;;9.39;43.16;95383.34;5091811;28;19950;-62
2023/03/20 03:27:28;;;;;;;;;;;;;;;9.41;43.34;95390.94;5090209;28;19944;-63
2023/03/20 03:29:57;;;;;;;;;;;;;;;9.42;42.87;95393.31;5094908;28;19998;-62
2023/03/20 03:32:29;;;;;;;;;;;;;;;9.57;42.38;95398.81;5089783;28;19951;-61
2023/03/20 03:34:57;;;;;;;;;;;;;;;9.55;42.61;95397.44;5091257;28;19950;-63
2023/03/20 03:37:24;;;;;;;;;;;;;;;9.42;42.71;95393.31;5090000;28;19953;-60
2023/03/20 03:39:54;;;;;;;;;;;;;;;9.49;42.38;95393.19;5092670;28;19952;-62
2023/03/20 03:42:26;;;;;;;;;;;;;;;9.48;42.81;95396.81;5092056;28;19954;-62
2023/03/20 03:44:58;;;;;;;;;;;;;;;9.35;42.63;95397.91;5090749;28;19950;-62
2023/03/20 03:47:35;;;;;;;;;;;;;;;9.43;42.79;95394.13;5107113;28;20507;-62
2023/03/20 03:50:07;;;;;;;;;;;;;;;9.25;42.87;95405.59;5096623;28;19947;-64
2023/03/20 03:52:35;;;;;;;;;;;;;;;9.28;42.52;95391.22;5106138;28;19965;-62
2023/03/20 03:55:04;;;;;;;;;;;;;;;9.30;43.04;95394.41;5091315;28;19952;-62
2023/03/20 03:57:39;;;;;;;;;;;;;;;9.32;42.77;95392.34;5090962;28;19970;-63
2023/03/20 04:00:10;;;;;;;;;;;;;;;8.90;44.25;95394.47;5092575;28;19947;-64
2023/03/20 04:02:44;;;;;;;;;;;;;;;8.92;43.95;95402.88;5090337;28;19969;-61
2023/03/20 04:05:12;;;;;;;;;;;;;;;8.84;43.94;95404.00;5089609;28;20403;-63
2023/03/20 04:07:43;;;;;;;;;;;;;;;9.08;43.80;95397.69;5090585;28;20362;-62
2023/03/20 04:10:10;;;;;;;;;;;;;;;9.31;42.98;95388.13;5091634;28;19951;-63
2023/03/20 04:12:43;;;;;;;;;;;;;;;9.18;42.92;95392.63;5089381;28;19960;-63
2023/03/20 04:15:10;;;;;;;;;;;;;;;9.13;42.82;95389.94;5090841;28;19950;-62
2023/03/20 04:17:37;;;;;;;;;;;;;;;8.94;43.16;95383.28;5088977;28;19961;-63
2023/03/20 04:20:05;;;;;;;;;;;;;;;9.08;42.77;95382.00;5090108;28;19944;-61
2023/03/20 04:22:33;;;;;;;;;;;;;;;8.94;43.03;95391.13;5075836;28;19974;-61
2023/03/20 04:25:16;;;;;;;;;;;;;;;8.83;43.71;95381.50;5094204;28;19943;-60
2023/03/20 04:27:42;;;;;;;;;;;;;;;8.89;42.89;95383.19;5089463;28;19952;-63
2023/03/20 04:30:21;;;;;;;;;;;;;;;9.00;43.02;95382.38;5089913;28;19987;-63
2023/03/20 04:33:06;;;;;;;;;;;;;;;8.92;43.24;95374.88;5091241;28;20452;-61
2023/03/20 04:35:50;;;;;;;;;;;;;;;8.99;43.40;95386.03;5087241;28;20366;-63
2023/03/20 04:38:18;;;;;;;;;;;;;;;9.07;42.56;95390.84;5090471;28;20585;-63
2023/03/20 04:40:46;;;;;;;;;;;;;;;8.92;42.86;95380.13;5089566;28;19927;-61
2023/03/20 04:43:13;;;;;;;;;;;;;;;8.91;43.48;95386.38;5089677;28;19945;-63
2023/03/20 04:45:40;;;;;;;;;;;;;;;8.92;43.20;95395.03;5089652;28;20019;-62
2023/03/20 04:48:08;;;;;;;;;;;;;;;8.94;45.98;95396.34;5089118;28;20018;-62
2023/03/20 04:50:37;;;;;;;;;;;;;;;9.23;44.55;95395.34;5106068;28;20576;-62
2023/03/20 04:53:04;;;;;;;;;;;;;;;9.12;43.40;95404.00;5091586;28;19927;-62
2023/03/20 04:55:31;;;;;;;;;;;;;;;9.23;43.48;95405.78;5091230;28;19924;-63
2023/03/20 04:57:58;;;;;;;;;;;;;;;9.38;42.81;95404.50;5091592;28;19985;-62
2023/03/20 05:00:26;;;;;;;;;;;;;;;9.39;42.38;95403.44;5088976;28;19928;-62
2023/03/20 05:02:53;;;;;;;;;;;;;;;9.54;42.24;95412.38;5088252;28;19924;-61
2023/03/20 05:05:21;;;;;;;;;;;;;;;9.56;42.54;95409.50;5091212;28;19927;-62
2023/03/20 05:07:48;;;;;;;;;;;;;;;9.66;41.82;95414.91;5089519;28;19924;-64
2023/03/20 05:10:22;;;;;;;;;;;;;;;9.52;42.20;95414.44;5089792;28;20027;-60
2023/03/20 05:13:00;;;;;;;;;;;;;;;9.58;42.56;95423.16;5089034;28;19927;-63
2023/03/20 05:15:51;;;;;;;;;;;;;;;9.71;42.64;95412.38;5086574;28;19934;-61
2023/03/20 05:18:38;;;;;;;;;;;;;;;9.50;42.38;95420.91;5088495;28;20404;-63
2023/03/20 05:21:14;;;;;;;;;;;;;;;9.55;43.19;95423.59;5089570;28;19924;-61
2023/03/20 05:23:41;;;;;;;;;;;;;;;9.54;43.25;95428.06;5089625;28;19971;-63
2023/03/20 05:26:26;;;;;;;;;;;;;;;9.60;43.17;95421.88;5088173;28;19931;-62
2023/03/20 05:29:14;;;;;;;;;;;;;;;9.76;43.11;95420.31;5090285;28;20323;-61
2023/03/20 05:31:59;;;;;;;;;;;;;;;9.90;42.60;95422.38;5086457;28;19927;-62
2023/03/20 05:34:35;;;;;;;;;;;;;;;9.89;42.77;95425.25;5088991;28;19957;-60
2023/03/20 05:37:25;;;;;;;;;;;;;;;10.05;43.00;95424.44;5075461;28;19920;-60
2023/03/20 05:40:03;;;;;;;;;;;;;;;10.12;42.81;95430.34;5088027;28;19920;-61
2023/03/20 05:42:39;;;;;;;;;;;;;;;10.15;42.60;95427.22;5088545;28;19934;-63
2023/03/20 05:45:24;;;;;;;;;;;;;;;10.25;42.52;95427.41;5089030;28;19961;-62
2023/03/20 05:48:11;;;;;;;;;;;;;;;10.32;42.39;95428.03;5085509;28;19971;-61
2023/03/20 05:50:57;;;;;;;;;;;;;;;10.27;42.36;95427.97;5089685;28;20069;-61
2023/03/20 05:53:41;;;;;;;;;;;;;;;10.54;42.04;95439.34;5076030;28;19924;-61
2023/03/20 05:56:28;;;;;;;;;;;;;;;10.43;42.72;95432.38;5066213;28;19923;-60
2023/03/20 05:59:17;;;;;;;;;;;;;;;10.66;42.43;95426.91;5068289;28;19925;-63
2023/03/20 06:02:07;;;;;;;;;;;;;;;10.83;41.84;95427.66;5088957;28;20387;-64
2023/03/20 06:04:37;;;;;;;;;;;;;;;10.69;41.82;95423.78;5087981;28;19920;-63
2023/03/20 06:07:05;;;;;;;;;;;;;;;10.91;41.66;95424.59;5089122;28;19967;-62
2023/03/20 06:09:33;;;;;;;;;;;;;;;10.79;41.75;95421.31;5088476;28;19920;-61
2023/03/20 06:12:04;;;;;;;;;;;;;;;10.92;41.70;95423.59;5088195;28;19924;-63
2023/03/20 06:14:31;;;;;;;;;;;;;;;10.92;41.86;95428.81;5088311;28;19932;-64
2023/03/20 06:17:01;;;;;;;;;;;;;;;10.95;41.75;95430.94;5087581;28;20039;-61
2023/03/20 06:19:29;;;;;;;;;;;;;;;11.05;42.01;95425.84;5101009;28;19924;-60
2023/03/20 06:21:55;;;;;;;;;;;;;;;11.08;41.80;95429.78;5088128;28;20000;-62
2023/03/20 06:24:23;;;;;;;;;;;;;;;11.17;41.76;95426.50;5088386;28;20373;-62
2023/03/20 06:26:50;;;;;;;;;;;;;;;11.21;41.75;95424.16;5087601;28;20040;-63
2023/03/20 06:29:17;;;;;;;;;;;;;;;11.21;41.84;95427.59;5088894;28;19920;-60
2023/03/20 06:31:51;;;;;;;;;;;;;;;11.24;41.44;95434.94;5087957;28;19923;-61
2023/03/20 06:34:25;;;;;;;;;;;;;;;11.42;41.23;95430.44;5088693;28;19924;-62
2023/03/20 06:36:52;;;;;;;;;;;;;;;11.55;41.47;95435.28;5087544;28;19927;-62
2023/03/20 06:39:22;;;;;;;;;;;;;;;11.61;40.95;95429.03;5090454;28;20015;-63
2023/03/20 06:41:49;;;;;;;;;;;;;;;11.76;40.64;95437.88;5091959;28;20035;-64
2023/03/20 06:44:17;;;;;;;;;;;;;;;11.65;40.72;95427.53;5090789;28;20349;-63
2023/03/20 06:47:07;;;;;;;;;;;;;;;11.89;40.68;95431.41;5090698;28;20002;-63
2023/03/20 06:49:34;;;;;;;;;;;;;;;11.84;40.88;95434.78;5090552;28;19919;-63
2023/03/20 06:52:01;;;;;;;;;;;;;;;12.06;40.47;95432.09;5092636;28;19927;-65
2023/03/20 06:54:30;;;;;;;;;;;;;;;12.10;40.25;95425.28;5098517;28;19950;-62
2023/03/20 06:56:56;;;;;;;;;;;;;;;12.18;40.06;95422.19;5092517;28;20010;-60
2023/03/20 06:59:25;;;;;;;;;;;;;;;11.94;43.49;95419.13;5091828;28;19977;-64
2023/03/20 07:01:56;;;;;;;;;;;;;;;11.88;41.85;95408.81;5091610;28;20389;-60
2023/03/20 07:04:24;;;;;;;;;;;;;;;12.09;41.64;95405.31;5091690;28;20679;-63
2023/03/20 07:06:54;;;;;;;;;;;;;;;12.56;41.96;95406.13;5091427;28;20409;-62
2023/03/20 07:09:22;;;;;;;;;;;;;;;12.71;41.13;95408.06;5091749;28;20375;-61
2023/03/20 07:11:48;;;;;;;;;;;;;;;12.75;41.28;95415.19;5091690;28;20271;-60
2023/03/20 07:14:15;;;;;;;;;;;;;;;12.82;41.33;95410.50;5108638;28;19944;-62
2023/03/20 07:16:50;;;;;;;;;;;;;;;12.92;40.12;95402.63;5092015;28;19948;-62
2023/03/20 07:19:18;;;;;;;;;;;;;;;13.09;39.35;95413.78;5094424;28;20406;-59
2023/03/20 07:21:51;;;;;;;;;;;;;;;13.13;39.02;95409.59;5092159;28;20276;-62
2023/03/20 07:24:18;;;;;;;;;;;;;;;13.46;38.88;95399.66;5091709;28;19924;-62
2023/03/20 07:26:45;;;;;;;;;;;;;;;13.52;38.72;95388.88;5093597;28;19954;-61
2023/03/20 07:29:13;;;;;;;;;;;;;;;13.59;38.81;95392.06;5092563;28;19939;-62
2023/03/20 07:31:40;;;;;;;;;;;;;;;13.60;38.88;95396.25;5091144;28;20408;-60
2023/03/20 07:34:14;;;;;;;;;;;;;;;13.80;38.87;95398.13;5092593;28;19943;-61
2023/03/20 07:36:41;;;;;;;;;;;;;;;14.00;38.88;95398.13;5090428;28;20706;-60
2023/03/20 07:39:09;;;;;;;;;;;;;;;14.21;38.30;95391.81;5091521;28;19988;-61
2023/03/20 07:41:39;;;;;;;;;;;;;;;14.05;38.13;95398.16;5090903;28;20303;-63
2023/03/20 07:44:09;;;;;;;;;;;;;;;14.17;38.14;95396.03;5091213;28;20388;-61
2023/03/20 07:46:51;;;;;;;;;;;;;;;14.13;37.69;95395.75;5090696;28;19996;-61
2023/03/20 07:49:21;;;;;;;;;;;;;;;14.17;38.00;95396.81;5090696;28;20462;-65
2023/03/20 07:51:49;;;;;;;;;;;;;;;14.26;38.00;95399.69;5090681;28;20095;-60
2023/03/20 07:54:16;;;;;;;;;;;;;;;14.28;37.70;95397.63;5091382;28;19984;-63
2023/03/20 07:56:42;;;;;;;;;;;;;;;14.43;37.48;95389.69;5090141;28;19947;-62
2023/03/20 07:59:10;;;;;;;;;;;;;;;14.46;37.47;95397.06;5092289;28;19963;-61
2023/03/20 08:01:37;;;;;;;;;;;;;;;14.52;38.04;95393.38;5091863;28;19948;-62
2023/03/20 08:04:04;;;;;;;;;;;;;;;14.62;37.67;95403.88;5092101;28;19994;-63
2023/03/20 08:06:31;;;;;;;;;;;;;;;14.91;36.76;95391.66;5091970;28;19982;-63
2023/03/20 08:08:58;;;;;;;;;;;;;;;14.91;37.11;95386.38;5091825;28;19989;-61
2023/03/20 08:11:24;;;;;;;;;;;;;;;15.08;37.14;95386.84;5092126;28;19920;-61
2023/03/20 08:13:51;;;;;;;;;;;;;;;14.92;36.88;95390.59;5091892;28;19964;-62
2023/03/20 08:16:18;;;;;;;;;;;;;;;15.40;36.62;95383.75;5091760;28;20375;-64
2023/03/20 08:18:45;;;;;;;;;;;;;;;15.19;36.45;95383.09;5091541;28;19944;-62
2023/03/20 08:21:11;;;;;;;;;;;;;;;15.23;35.81;95384.13;5091551;28;19989;-61
2023/03/20 08:23:38;;;;;;;;;;;;;;;15.55;36.24;95380.25;5092035;28;19942;-62
2023/03/20 08:26:05;;;;;;;;;;;;;;;15.43;35.96;95388.53;5091456;28;19941;-61
2023/03/20 08:28:31;;;;;;;;;;;;;;;15.70;35.38;95382.81;5092117;28;19962;-63
2023/03/20 08:31:13;;;;;;;;;;;;;;;15.78;35.78;95390.16;5091532;28;20042;-62
2023/03/20 08:33:40;;;;;;;;;;;;;;;16.04;35.55;95383.59;5092183;28;20384;-62
2023/03/20 08:36:07;;;;;;;;;;;;;;;16.01;35.00;95394.72;5090064;28;19937;-62
2023/03/20 08:38:33;;;;;;;;;;;;;;;16.26;35.27;95385.81;5091893;28;20473;-63
2023/03/20 08:41:00;;;;;;;;;;;;;;;16.24;35.24;95391.34;5091528;28;20050;-62
2023/03/20 08:43:27;;;;;;;;;;;;;;;16.15;35.32;95390.38;5078410;28;20007;-61
2023/03/20 08:45:54;;;;;;;;;;;;;;;16.63;34.69;95386.78;5091045;28;19935;-61
2023/03/20 08:48:20;;;;;;;;;;;;;;;16.40;35.10;95382.22;5091658;28;19981;-60
2023/03/20 08:50:47;;;;;;;;;;;;;;;16.65;35.55;95378.56;5090699;28;20011;-63
2023/03/20 08:53:14;;;;;;;;;;;;;;;16.82;33.97;95377.03;5090681;28;19944;-62
2023/03/20 08:55:46;;;;;;;;;;;;;;;16.79;34.48;95374.94;5090810;28;19948;-63
2023/03/20 08:58:13;;;;;;;;;;;;;;;17.07;34.66;95376.75;5090836;28;19947;-60
2023/03/20 09:00:41;;;;;;;;;;;;;;;17.29;33.98;95372.75;5090889;28;19953;-62
2023/03/20 09:03:14;;;;;;;;;;;;;;;17.37;33.09;95369.47;5090924;28;19971;-62
2023/03/20 09:05:45;;;;;;;;;;;;;;;17.09;32.92;95373.81;5091214;28;19961;-62
2023/03/20 09:08:12;;;;;;;;;;;;;;;17.34;32.57;95372.69;5091368;28;19943;-63
2023/03/20 09:10:40;;;;;;;;;;;;;;;17.19;32.84;95365.72;5092287;28;19997;-62
2023/03/20 09:13:06;;;;;;;;;;;;;;;17.62;32.75;95355.88;5092292;28;20045;-62
2023/03/20 09:15:51;;;;;;;;;;;;;;;17.79;32.72;95356.16;5090724;28;19949;-63
2023/03/20 09:18:19;;;;;;;;;;;;;;;18.29;32.28;95357.19;5091416;28;19920;-61
2023/03/20 09:20:47;;;;;;;;;;;;;;;18.59;31.33;95349.50;5091232;28;20350;-63
2023/03/20 09:23:14;;;;;;;;;;;;;;;18.93;30.99;95339.28;5090991;28;19952;-63
2023/03/20 09:25:41;;;;;;;;;;;;;;;18.37;29.87;95351.22;5090377;28;19920;-62
2023/03/20 09:28:07;;;;;;;;;;;;;;;18.59;30.00;95343.41;5091137;28;19919;-60
2023/03/20 09:30:35;;;;;;;;;;;;;;;19.17;29.47;95331.88;5090765;28;20429;-60
2023/03/20 09:33:02;;;;;;;;;;;;;;;19.06;29.19;95333.16;5090599;28;20023;-61
2023/03/20 09:35:29;;;;;;;;;;;;;;;18.86;29.53;95330.94;5090875;28;19920;-61
2023/03/20 09:37:56;;;;;;;;;;;;;;;18.74;30.16;95335.94;5089288;28;19924;-62
2023/03/20 09:40:27;;;;;;;;;;;;;;;18.56;30.05;95328.06;5090575;28;20073;-61
2023/03/20 09:43:16;;;;;;;;;;;;;;;18.76;29.14;95317.03;5089712;28;19939;-62
2023/03/20 09:46:02;;;;;;;;;;;;;;;19.49;29.85;95309.66;5041390;28;19924;-60
2023/03/20 09:48:40;;;;;;;;;;;;;;;19.61;29.81;95304.63;5078457;28;19969;-62
2023/03/20 09:51:17;;;;;;;;;;;;;;;19.72;29.26;95297.19;5089562;28;19924;-61
2023/03/20 09:53:46;;;;;;;;;;;;;;;20.22;29.42;95279.19;5079523;28;20371;-62
2023/03/20 09:56:16;;;;;;;;;;;;;;;20.36;28.31;95278.00;5090050;28;19985;-61
2023/03/20 09:58:45;;;;;;;;;;;;;;;20.51;27.60;95276.81;5090418;28;20455;-63
2023/03/20 10:01:14;;;;;;;;;;;;;;;20.72;28.57;95281.28;5089646;28;19936;-61
2023/03/20 10:03:43;;;;;;;;;;;;;;;20.97;28.18;95269.88;5090550;28;20333;-60
2023/03/20 10:06:14;;;;;;;;;;;;;;;21.18;27.38;95254.13;5089638;28;19940;-62
2023/03/20 10:08:41;;;;;;;;;;;;;;;20.80;28.01;95253.84;5090442;28;19942;-62
2023/03/20 10:11:15;;;;;;;;;;;;;;;21.12;28.19;95239.38;5089552;28;19999;-62
2023/03/20 10:14:02;;;;;;;;;;;;;;;20.90;28.04;95236.78;5090418;28;19984;-63
2023/03/20 10:16:38;;;;;;;;;;;;;;;20.94;28.31;95243.06;5089732;28;19930;-62
2023/03/20 10:19:27;;;;;;;;;;;;;;;21.31;28.08;95237.19;5089965;28;19927;-62
2023/03/20 10:22:01;;;;;;;;;;;;;;;21.39;27.87;95233.72;5089332;28;19928;-62
2023/03/20 10:24:31;;;;;;;;;;;;;;;21.82;27.21;95223.03;5090442;28;19926;-59
2023/03/20 10:27:01;;;;;;;;;;;;;;;21.85;26.53;95231.19;5089181;28;19928;-61
2023/03/20 10:29:49;;;;;;;;;;;;;;;21.81;25.66;95226.78;5090338;28;19920;-62
2023/03/20 10:32:27;;;;;;;;;;;;;;;21.81;26.73;95218.78;5076213;28;20022;-61
2023/03/20 10:34:57;;;;;;;;;;;;;;;21.35;25.95;95224.78;5089944;28;19928;-62
2023/03/20 10:37:43;;;;;;;;;;;;;;;21.43;25.64;95217.88;5089239;28;19979;-62
2023/03/20 10:40:25;;;;;;;;;;;;;;;21.54;26.38;95208.44;5090247;28;19926;-62
2023/03/20 10:42:54;;;;;;;;;;;;;;;21.90;26.33;95206.19;5089771;28;20299;-62
2023/03/20 10:45:21;;;;;;;;;;;;;;;22.08;26.06;95202.38;5090183;28;19975;-60
2023/03/20 10:47:50;;;;;;;;;;;;;;;22.30;25.88;95188.78;5088972;28;20387;-61
2023/03/20 10:50:18;;;;;;;;;;;;;;;22.44;25.73;95188.56;5089782;28;20350;-62
2023/03/20 10:52:47;;;;;;;;;;;;;;;22.19;25.28;95184.13;5088113;28;20381;-64
2023/03/20 10:55:22;;;;;;;;;;;;;;;22.29;25.54;95183.75;5077035;28;19966;-62
2023/03/20 10:58:09;;;;;;;;;;;;;;;22.65;25.60;95174.16;5089112;28;19977;-62
2023/03/20 11:00:36;;;;;;;;;;;;;;;22.93;25.66;95169.91;5090187;28;19927;-61
2023/03/20 11:03:05;;;;;;;;;;;;;;;22.94;25.01;95173.31;5089138;28;19930;-62
2023/03/20 11:05:33;;;;;;;;;;;;;;;23.18;25.68;95170.78;5090627;28;19949;-60
2023/03/20 11:08:07;;;;;;;;;;;;;;;22.94;24.29;95166.09;5089235;28;20774;-62
2023/03/20 11:10:36;;;;;;;;;;;;;;;23.17;24.67;95167.31;5105273;28;19928;-61
2023/03/20 11:13:14;;;;;;;;;;;;;;;23.35;25.00;95153.84;5089930;28;20376;-62
2023/03/20 11:15:41;;;;;;;;;;;;;;;23.47;25.44;95151.19;5089857;28;19948;-60
2023/03/20 11:18:12;;;;;;;;;;;;;;;23.70;24.95;95149.72;5089425;28;20002;-63
2023/03/20 11:20:45;;;;;;;;;;;;;;;23.70;25.15;95145.13;5089261;28;19989;-61
2023/03/20 11:23:17;;;;;;;;;;;;;;;23.75;24.79;95146.81;5089118;28;19943;-62
2023/03/20 11:25:57;;;;;;;;;;;;;;;23.69;24.47;95132.06;5091400;28;19945;-60
2023/03/20 11:28:35;;;;;;;;;;;;;;;23.99;23.98;95130.78;5093303;28;19990;-61
2023/03/20 11:31:05;;;;;;;;;;;;;;;24.02;23.56;95119.44;5092523;28;19960;-62
2023/03/20 11:33:52;;;;;;;;;;;;;;;24.20;23.80;95120.00;5093104;28;20011;-62
2023/03/20 11:36:19;;;;;;;;;;;;;;;24.51;23.10;95114.81;5091984;28;19997;-61
2023/03/20 11:38:46;;;;;;;;;;;;;;;24.76;22.98;95101.06;5093135;28;19947;-61
2023/03/20 11:41:17;;;;;;;;;;;;;;;24.71;22.87;95098.63;5092182;28;19944;-61
2023/03/20 11:43:44;;;;;;;;;;;;;;;24.86;21.79;95100.63;5092959;28;19982;-60
2023/03/20 11:46:12;;;;;;;;;;;;;;;24.94;21.93;95094.31;5091988;28;19945;-62
2023/03/20 11:48:40;;;;;;;;;;;;;;;25.28;21.63;95087.59;5092900;28;19947;-61
2023/03/20 11:51:14;;;;;;;;;;;;;;;25.36;21.74;95080.50;5092057;28;19939;-60
2023/03/20 11:53:57;;;;;;;;;;;;;;;25.18;21.47;95073.91;5080151;28;19938;-61
2023/03/20 11:56:24;;;;;;;;;;;;;;;25.45;21.70;95067.75;5092353;28;20429;-62
2023/03/20 11:58:50;;;;;;;;;;;;;;;25.40;20.85;95065.31;5092724;28;19971;-61
2023/03/20 12:01:19;;;;;;;;;;;;;;;24.51;20.77;95072.75;5092018;28;20467;-62
2023/03/20 12:03:55;;;;;;;;;;;;;;;24.95;21.04;95061.03;5092944;28;19949;-61
2023/03/20 12:06:26;;;;;;;;;;;;;;;25.66;20.27;95049.47;5093474;28;20294;-61
2023/03/20 12:08:57;;;;;;;;;;;;;;;25.89;20.31;95053.13;5092973;28;19945;-62
2023/03/20 12:11:43;;;;;;;;;;;;;;;26.37;19.47;95047.34;5079079;28;19944;-62
2023/03/20 12:14:14;;;;;;;;;;;;;;;26.35;19.13;95038.09;5092141;28;19978;-61
2023/03/20 12:16:42;;;;;;;;;;;;;;;26.87;18.99;95041.13;5092290;28;19945;-63
2023/03/20 12:19:13;;;;;;;;;;;;;;;26.88;19.65;95032.69;5092093;28;20377;-61
2023/03/20 12:21:45;;;;;;;;;;;;;;;27.33;19.59;95036.63;5091959;28;20356;-61
2023/03/20 12:24:14;;;;;;;;;;;;;;;27.53;18.98;95030.84;5092604;28;19939;-61
2023/03/20 12:27:06;;;;;;;;;;;;;;;27.78;19.07;95020.47;5090603;28;19944;-60
2023/03/20 12:29:40;;;;;;;;;;;;;;;27.94;19.03;95018.44;5092913;28;19999;-60
2023/03/20 12:32:39;;;;;;;;;;;;;;;27.97;17.52;95025.81;5092040;28;19938;-62
2023/03/20 12:35:22;;;;;;;;;;;;;;;26.67;17.18;95016.13;5043701;28;19988;-62
2023/03/20 12:37:50;;;;;;;;;;;;;;;27.56;17.97;95013.19;5090284;28;19957;-61
2023/03/20 12:40:17;;;;;;;;;;;;;;;27.21;16.40;95012.56;5093355;28;19978;-62
2023/03/20 12:42:56;;;;;;;;;;;;;;;27.97;17.88;95001.56;5090995;28;19937;-61
2023/03/20 12:45:30;;;;;;;;;;;;;;;27.96;17.71;95008.88;5092050;28;20018;-63
2023/03/20 12:48:11;;;;;;;;;;;;;;;28.26;16.90;94997.34;5090790;28;20364;-61
2023/03/20 12:50:40;;;;;;;;;;;;;;;28.61;16.76;94995.91;5091397;28;20422;-63
2023/03/20 12:53:12;;;;;;;;;;;;;;;28.76;16.33;94978.75;5091779;28;19966;-61
2023/03/20 12:55:48;;;;;;;;;;;;;;;28.95;15.22;94975.91;5091612;28;19970;-65
2023/03/20 12:58:22;;;;;;;;;;;;;;;29.05;15.09;94985.22;5090989;28;19928;-63
2023/03/20 13:00:57;;;;;;;;;;;;;;;29.10;14.23;94970.66;5092089;28;19956;-61
2023/03/20 13:03:24;;;;;;;;;;;;;;;29.04;14.52;94966.72;5078380;28;19955;-61
2023/03/20 13:05:53;;;;;;;;;;;;;;;28.99;14.89;94970.53;5090832;28;20027;-61
2023/03/20 13:08:31;;;;;;;;;;;;;;;29.14;15.27;94958.00;5083221;28;19939;-60
2023/03/20 13:10:58;;;;;;;;;;;;;;;29.05;14.84;94958.25;5088006;28;19947;-63
2023/03/20 13:13:32;;;;;;;;;;;;;;;29.24;14.46;94960.00;5090892;28;19943;-62
2023/03/20 13:16:02;;;;;;;;;;;;;;;29.22;15.23;94959.59;5090500;28;19936;-61